»·PEaware :: N786SC KBFL-KMHV

N786SC :: KBFL-KMHV

FLIGHT INFORMATION

Flight Status: Arrived
Operator: Privately registered:
United States
More flights under this callsign
Pilot: Jereme M. (20698)
Aircraft: CESSNA 172 SKYHAWK
(C172)
More flights by this aircraft type
Origin: KBFL Meadows
United States
Destination: KMHV Mojave
United States
More flights between these airports :: More routes between these airports
Route: +KELEN
File this flight plan on PilotEdge
Remarks:
Altitude:
(Current/Filed)
5,500ft
Speed:
(Current/Filed)
110kts
Departed: 08-Oct-18 06:07 PM
Arrived: 08-Oct-18 07:36 PM
Distance/Time
Traveled:
49nm/1:29
Distance/Time
To Go:
Arrived

Flight Plot

Page will automatically refresh every two minutes.

Flight plan parsing failed; only flown route is shown


Map Options




Map Legend


Flown Route
Filed Route
Departure Airport
Arrival Airport
Navaid (VOR, NDB)
Fix

Horizontal Profiles

Position Reports

Time Latitude Longitude Heading Altitude Ground
Speed
08-Oct-18 17:44 35.435702 -119.052043 179 510ft 0kts
08-Oct-18 17:45 35.435702 -119.052043 179 510ft 0kts
08-Oct-18 17:46 35.435702 -119.052043 179 510ft 0kts
08-Oct-18 17:47 35.435702 -119.052043 179 510ft 0kts
08-Oct-18 17:48 35.435702 -119.052043 179 510ft 0kts
08-Oct-18 17:49 35.435702 -119.052043 179 510ft 0kts
08-Oct-18 17:50 35.435702 -119.052043 179 510ft 0kts
08-Oct-18 17:51 35.435702 -119.052043 179 510ft 0kts
08-Oct-18 17:52 35.435702 -119.052043 179 510ft 0kts
08-Oct-18 17:53 35.435702 -119.052043 179 510ft 0kts
08-Oct-18 17:54 35.435702 -119.052043 179 510ft 0kts
08-Oct-18 17:55 35.435702 -119.052043 179 510ft 0kts
08-Oct-18 17:56 35.435702 -119.052043 179 510ft 0kts
08-Oct-18 17:57 35.435702 -119.052043 179 510ft 0kts
08-Oct-18 17:58 35.435702 -119.052043 179 510ft 0kts
08-Oct-18 17:59 35.435702 -119.052043 179 510ft 0kts
08-Oct-18 18:00 35.435862 -119.053079 265 510ft 9kts
08-Oct-18 18:01 35.432625 -119.052523 135 510ft 20kts
08-Oct-18 18:02 35.427840 -119.046779 136 510ft 26kts
08-Oct-18 18:03 35.425682 -119.044816 223 510ft 0kts
08-Oct-18 18:04 35.425682 -119.044816 223 510ft 0kts
08-Oct-18 18:05 35.425682 -119.044816 223 510ft 0kts
08-Oct-18 18:06 35.425682 -119.044816 223 510ft 0kts
08-Oct-18 18:07 35.425682 -119.044816 223 510ft 0kts
08-Oct-18 18:08 35.425648 -119.044867 234 510ft 3kts
08-Oct-18 18:09 35.432092 -119.054009 317 734ft 78kts
08-Oct-18 18:10 35.450450 -119.066056 27 1625ft 83kts
08-Oct-18 18:11 35.446752 -119.042637 157 2316ft 95kts
08-Oct-18 18:12 35.422856 -119.026827 149 2977ft 96kts
08-Oct-18 18:13 35.401405 -119.009986 145 3717ft 86kts
08-Oct-18 18:14 35.381938 -118.993914 145 4437ft 84kts
08-Oct-18 18:15 35.364007 -118.976299 134 5134ft 82kts
08-Oct-18 18:16 35.348266 -118.957147 134 5814ft 79kts
08-Oct-18 18:17 35.331182 -118.936419 135 6322ft 91kts
08-Oct-18 18:18 35.313062 -118.914537 134 6882ft 89kts
08-Oct-18 18:19 35.295771 -118.893708 135 7479ft 85kts
08-Oct-18 18:20 35.275286 -118.869131 135 7514ft 110kts
08-Oct-18 18:21 35.253053 -118.842609 135 7514ft 112kts
08-Oct-18 18:22 35.230770 -118.816116 135 7514ft 112kts
08-Oct-18 18:23 35.208325 -118.789454 135 7514ft 112kts
08-Oct-18 18:24 35.185806 -118.762798 135 7514ft 112kts
08-Oct-18 18:25 35.163354 -118.736265 135 7514ft 112kts
08-Oct-18 18:26 35.141656 -118.710665 135 7514ft 112kts
08-Oct-18 18:27 35.119933 -118.682931 108 7435ft 114kts
08-Oct-18 18:28 35.118208 -118.646177 98 7520ft 111kts
08-Oct-18 18:29 35.113137 -118.608563 99 7520ft 111kts
08-Oct-18 18:30 35.108690 -118.572732 98 7520ft 111kts
08-Oct-18 18:31 35.104151 -118.535636 98 7328ft 112kts
08-Oct-18 18:32 35.099813 -118.500414 98 6829ft 102kts
08-Oct-18 18:33 35.095637 -118.466664 98 6329ft 99kts
08-Oct-18 18:34 35.091481 -118.433320 98 5829ft 99kts
08-Oct-18 18:35 35.087313 -118.400126 98 5329ft 98kts
08-Oct-18 18:36 35.083214 -118.367700 98 4827ft 95kts
08-Oct-18 18:40 35.435703 -119.052044 178 510ft 0kts
08-Oct-18 18:41 35.435675 -119.052043 171 510ft 0kts
08-Oct-18 18:42 35.435675 -119.052043 171 510ft 0kts
08-Oct-18 18:43 35.435675 -119.052043 171 510ft 0kts
08-Oct-18 18:44 35.435675 -119.052043 171 510ft 0kts
08-Oct-18 18:45 35.435675 -119.052043 171 510ft 0kts
08-Oct-18 18:46 35.435675 -119.052043 171 510ft 0kts
08-Oct-18 18:47 35.435675 -119.052043 171 510ft 0kts
08-Oct-18 18:48 35.435675 -119.052043 171 510ft 0kts
08-Oct-18 18:49 35.435675 -119.052043 171 510ft 0kts
08-Oct-18 18:50 35.435675 -119.052043 171 510ft 0kts
08-Oct-18 18:51 35.435627 -119.053597 219 510ft 14kts
08-Oct-18 18:52 35.431839 -119.051623 135 510ft 20kts
08-Oct-18 18:53 35.427269 -119.046038 134 510ft 24kts
08-Oct-18 18:54 35.425654 -119.044746 245 510ft 0kts
08-Oct-18 18:55 35.425510 -119.045653 274 510ft 11kts
08-Oct-18 18:56 35.435568 -119.058205 316 665ft 80kts
08-Oct-18 18:57 35.451803 -119.072890 26 1226ft 73kts
08-Oct-18 18:58 35.453063 -119.052300 141 1612ft 84kts
08-Oct-18 18:59 35.437648 -119.039239 137 2242ft 53kts
08-Oct-18 19:00 35.423521 -119.023590 137 2565ft 75kts
08-Oct-18 19:01 35.406962 -119.005473 137 2963ft 77kts
08-Oct-18 19:02 35.390690 -118.987649 137 3321ft 83kts
08-Oct-18 19:03 35.372842 -118.968161 138 3624ft 88kts
08-Oct-18 19:04 35.354542 -118.948178 138 3924ft 88kts
08-Oct-18 19:05 35.336414 -118.928366 137 4277ft 82kts
08-Oct-18 19:06 35.321374 -118.911843 137 4729ft 67kts
08-Oct-18 19:07 35.306787 -118.895650 136 5034ft 74kts
08-Oct-18 19:08 35.293996 -118.881060 136 5286ft 77kts
08-Oct-18 19:09 35.275496 -118.859982 136 5637ft 78kts
08-Oct-18 19:10 35.262209 -118.844839 136 5887ft 78kts
08-Oct-18 19:11 35.244056 -118.824130 136 6232ft 76kts
08-Oct-18 19:12 35.231409 -118.809678 136 6480ft 73kts
08-Oct-18 19:13 35.215950 -118.791998 136 6696ft 79kts
08-Oct-18 19:14 35.200089 -118.773885 136 6935ft 78kts
08-Oct-18 19:15 35.183918 -118.755397 136 7138ft 80kts
08-Oct-18 19:16 35.167435 -118.736554 136 7338ft 81kts
08-Oct-18 19:17 35.151403 -118.718216 136 7491ft 86kts
08-Oct-18 19:18 35.132491 -118.696618 136 7498ft 97kts
08-Oct-18 19:19 35.120748 -118.668008 97 7513ft 98kts
08-Oct-18 19:20 35.117050 -118.634768 97 7514ft 99kts
08-Oct-18 19:21 35.113319 -118.601223 97 7514ft 100kts
08-Oct-18 19:22 35.109759 -118.569074 97 7514ft 100kts
08-Oct-18 19:23 35.106047 -118.535424 97 7514ft 100kts
08-Oct-18 19:24 35.102330 -118.501663 97 7514ft 100kts
08-Oct-18 19:25 35.098632 -118.467977 97 7514ft 100kts
08-Oct-18 19:26 35.095484 -118.439290 97 7514ft 100kts
08-Oct-18 19:27 35.091890 -118.406272 97 7514ft 100kts
08-Oct-18 19:28 35.088029 -118.370905 97 7233ft 110kts
08-Oct-18 19:29 35.083931 -118.333434 97 6576ft 117kts
08-Oct-18 19:30 35.079966 -118.296939 97 5780ft 106kts
08-Oct-18 19:31 35.076134 -118.261529 97 4981ft 105kts
08-Oct-18 19:32 35.072323 -118.226288 97 4180ft 101kts
08-Oct-18 19:33 35.069054 -118.195698 97 3715ft 81kts
08-Oct-18 19:34 35.067017 -118.165483 85 3708ft 94kts
08-Oct-18 19:35 35.070408 -118.135811 79 3703ft 77kts
08-Oct-18 19:36 35.059977 -118.122936 236 3333ft 73kts
08-Oct-18 19:37 35.059146 -118.144402 269 2795ft 44kts
08-Oct-18 19:38 35.059125 -118.151523 269 2795ft 20kts
08-Oct-18 19:39 35.058399 -118.157798 178 2795ft 0kts
08-Oct-18 19:40 35.057907 -118.157819 195 2795ft 11kts
08-Oct-18 19:41 35.056928 -118.159217 94 2795ft 0kts
08-Oct-18 19:42 35.056928 -118.159217 94 2795ft 0kts
08-Oct-18 19:51 35.056928 -118.159218 95 2795ft 0kts

Navigation Log

Ident Type
Flight plan parsing failed, navigation log unavailable